sensor_id;sensor_type;location;lat;lon;timestamp;pressure;altitude;pressure_sealevel;temperature;humidity
79413;BME280;68863;49.528;11.010;2023-04-03T00:00:51;99112.31;;;3.78;58.10
79413;BME280;68863;49.528;11.010;2023-04-03T00:01:51;99113.09;;;3.81;58.09
79413;BME280;68863;49.528;11.010;2023-04-03T00:02:51;99114.81;;;3.82;58.23
79413;BME280;68863;49.528;11.010;2023-04-03T00:03:51;99107.13;;;3.78;57.71
79413;BME280;68863;49.528;11.010;2023-04-03T00:04:52;99101.84;;;3.82;57.27
79413;BME280;68863;49.528;11.010;2023-04-03T00:05:52;99105.16;;;3.86;57.47
79413;BME280;68863;49.528;11.010;2023-04-03T00:06:52;99108.50;;;3.89;57.34
79413;BME280;68863;49.528;11.010;2023-04-03T00:07:53;99105.88;;;3.91;57.09
79413;BME280;68863;49.528;11.010;2023-04-03T00:08:53;99100.72;;;3.89;56.94
79413;BME280;68863;49.528;11.010;2023-04-03T00:09:54;99104.94;;;3.93;57.47
79413;BME280;68863;49.528;11.010;2023-04-03T00:10:54;99108.44;;;3.92;56.88
79413;BME280;68863;49.528;11.010;2023-04-03T00:11:55;99104.81;;;3.98;56.98
79413;BME280;68863;49.528;11.010;2023-04-03T00:12:55;99107.50;;;3.95;56.77
79413;BME280;68863;49.528;11.010;2023-04-03T00:13:56;99104.09;;;3.93;57.24
79413;BME280;68863;49.528;11.010;2023-04-03T00:14:56;99106.50;;;3.99;57.36
79413;BME280;68863;49.528;11.010;2023-04-03T00:15:56;99108.13;;;4.02;57.28
79413;BME280;68863;49.528;11.010;2023-04-03T00:16:56;99102.94;;;4.02;57.29
79413;BME280;68863;49.528;11.010;2023-04-03T00:17:57;99111.78;;;3.96;57.01
79413;BME280;68863;49.528;11.010;2023-04-03T00:18:57;99108.19;;;4.00;56.92
79413;BME280;68863;49.528;11.010;2023-04-03T00:19:57;99107.25;;;4.03;57.30
79413;BME280;68863;49.528;11.010;2023-04-03T00:20:57;99105.69;;;3.97;57.02
79413;BME280;68863;49.528;11.010;2023-04-03T00:21:58;99104.75;;;4.00;56.94
79413;BME280;68863;49.528;11.010;2023-04-03T00:22:59;99104.81;;;3.98;57.05
79413;BME280;68863;49.528;11.010;2023-04-03T00:23:59;99109.09;;;3.99;57.21
79413;BME280;68863;49.528;11.010;2023-04-03T00:25:00;99108.28;;;3.97;57.32
79413;BME280;68863;49.528;11.010;2023-04-03T00:26:00;99108.50;;;3.89;57.12
79413;BME280;68863;49.528;11.010;2023-04-03T00:27:01;99101.84;;;3.82;57.74
79413;BME280;68863;49.528;11.010;2023-04-03T00:28:02;99106.81;;;3.88;57.06
79413;BME280;68863;49.528;11.010;2023-04-03T00:29:02;99104.28;;;3.87;57.16
79413;BME280;68863;49.528;11.010;2023-04-03T00:30:03;99105.44;;;3.77;56.93
79413;BME280;68863;49.528;11.010;2023-04-03T00:31:03;99108.03;;;3.77;57.32
79413;BME280;68863;49.528;11.010;2023-04-03T00:32:04;99102.84;;;3.77;57.23
79413;BME280;68863;49.528;11.010;2023-04-03T00:33:04;99103.91;;;3.69;56.73
79413;BME280;68863;49.528;11.010;2023-04-03T00:34:05;99104.00;;;3.66;56.92
79413;BME280;68863;49.528;11.010;2023-04-03T00:35:05;99106.50;;;3.69;57.06
79413;BME280;68863;49.528;11.010;2023-04-03T00:36:09;99101.59;;;3.60;57.24
79413;BME280;68863;49.528;11.010;2023-04-03T00:37:10;99100.75;;;3.60;56.90
79413;BME280;68863;49.528;11.010;2023-04-03T00:38:10;99105.34;;;3.50;57.51
79413;BME280;68863;49.528;11.010;2023-04-03T00:39:11;99102.53;;;3.58;57.08
79413;BME280;68863;49.528;11.010;2023-04-03T00:40:12;99103.28;;;3.63;56.65
79413;BME280;68863;49.528;11.010;2023-04-03T00:41:13;99107.78;;;3.56;57.49
79413;BME280;68863;49.528;11.010;2023-04-03T00:42:13;99103.44;;;3.57;57.85
79413;BME280;68863;49.528;11.010;2023-04-03T00:43:24;99109.81;;;3.45;58.56
79413;BME280;68863;49.528;11.010;2023-04-03T00:45:37;99105.69;;;3.38;58.09
79413;BME280;68863;49.528;11.010;2023-04-03T00:46:37;99104.00;;;3.37;58.48
79413;BME280;68863;49.528;11.010;2023-04-03T00:47:39;99109.81;;;3.45;58.66
79413;BME280;68863;49.528;11.010;2023-04-03T00:48:43;99108.22;;;3.41;58.91
79413;BME280;68863;49.528;11.010;2023-04-03T00:49:45;99107.16;;;3.48;58.32
79413;BME280;68863;49.528;11.010;2023-04-03T00:50:46;99103.81;;;3.43;58.52
79413;BME280;68863;49.528;11.010;2023-04-03T00:51:46;99104.63;;;3.45;58.47
79413;BME280;68863;49.528;11.010;2023-04-03T00:52:47;99110.59;;;3.49;58.16
79413;BME280;68863;49.528;11.010;2023-04-03T00:53:53;99103.66;;;3.49;58.22
79413;BME280;68863;49.528;11.010;2023-04-03T00:55:00;99112.34;;;3.48;58.34
79413;BME280;68863;49.528;11.010;2023-04-03T00:56:06;99106.63;;;3.35;58.72
79413;BME280;68863;49.528;11.010;2023-04-03T00:57:07;99108.28;;;3.38;58.85
79413;BME280;68863;49.528;11.010;2023-04-03T00:58:08;99104.03;;;3.35;59.13
79413;BME280;68863;49.528;11.010;2023-04-03T00:59:15;99111.03;;;3.33;58.51
79413;BME280;68863;49.528;11.010;2023-04-03T01:00:19;99100.50;;;3.38;58.72
79413;BME280;68863;49.528;11.010;2023-04-03T01:01:24;99105.22;;;3.24;59.50
79413;BME280;68863;49.528;11.010;2023-04-03T01:02:25;99102.53;;;3.27;59.21
79413;BME280;68863;49.528;11.010;2023-04-03T01:03:26;99105.22;;;3.24;59.13
79413;BME280;68863;49.528;11.010;2023-04-03T01:04:31;99101.97;;;3.17;58.87
79413;BME280;68863;49.528;11.010;2023-04-03T01:08:03;99104.13;;;3.32;58.80
79413;BME280;68863;49.528;11.010;2023-04-03T01:09:04;99108.44;;;3.33;58.53
79413;BME280;68863;49.528;11.010;2023-04-03T01:10:08;99107.75;;;3.27;58.76
79413;BME280;68863;49.528;11.010;2023-04-03T01:11:09;99106.59;;;3.37;58.42
79413;BME280;68863;49.528;11.010;2023-04-03T01:12:18;99103.19;;;3.35;58.33
79413;BME280;68863;49.528;11.010;2023-04-03T01:13:31;99099.94;;;3.27;58.93
79413;BME280;68863;49.528;11.010;2023-04-03T01:14:32;99104.09;;;3.34;58.78
79413;BME280;68863;49.528;11.010;2023-04-03T01:15:32;99108.44;;;3.33;58.01
79413;BME280;68863;49.528;11.010;2023-04-03T01:16:34;99105.84;;;3.33;58.26
79413;BME280;68863;49.528;11.010;2023-04-03T01:17:38;99100.03;;;3.24;58.12
79413;BME280;68863;49.528;11.010;2023-04-03T01:18:39;99101.84;;;3.22;58.39
79413;BME280;68863;49.528;11.010;2023-04-03T01:19:43;99107.16;;;3.17;59.00
79413;BME280;68863;49.528;11.010;2023-04-03T01:21:34;99106.97;;;3.23;58.52
79413;BME280;68863;49.528;11.010;2023-04-03T01:22:31;99105.41;;;3.17;58.45
79413;BME280;68863;49.528;11.010;2023-04-03T01:24:03;99105.34;;;3.21;58.22
79413;BME280;68863;49.528;11.010;2023-04-03T01:25:05;99109.63;;;3.22;58.31
79413;BME280;68863;49.528;11.010;2023-04-03T01:26:05;99104.38;;;3.23;58.79
79413;BME280;68863;49.528;11.010;2023-04-03T01:27:07;99107.34;;;3.09;59.36
79413;BME280;68863;49.528;11.010;2023-04-03T01:28:15;99105.34;;;3.19;58.97
79413;BME280;68863;49.528;11.010;2023-04-03T01:29:16;99109.78;;;3.15;58.66
79413;BME280;68863;49.528;11.010;2023-04-03T01:30:19;99105.56;;;3.11;59.26
79413;BME280;68863;49.528;11.010;2023-04-03T01:31:25;99110.94;;;3.05;59.32
79413;BME280;68863;49.528;11.010;2023-04-03T01:32:27;99104.75;;;3.09;59.19
79413;BME280;68863;49.528;11.010;2023-04-03T01:33:27;99108.91;;;3.16;59.20
79413;BME280;68863;49.528;11.010;2023-04-03T01:34:28;99114.94;;;3.17;59.04
79413;BME280;68863;49.528;11.010;2023-04-03T01:35:29;99114.97;;;3.15;59.22
79413;BME280;68863;49.528;11.010;2023-04-03T01:36:31;99114.09;;;3.16;58.94
79413;BME280;68863;49.528;11.010;2023-04-03T01:37:31;99114.38;;;3.06;58.80
79413;BME280;68863;49.528;11.010;2023-04-03T01:38:32;99113.53;;;3.05;58.79
79413;BME280;68863;49.528;11.010;2023-04-03T01:39:32;99105.69;;;3.07;58.78
79413;BME280;68863;49.528;11.010;2023-04-03T01:40:32;99112.53;;;3.09;58.84
79413;BME280;68863;49.528;11.010;2023-04-03T01:41:33;99114.38;;;3.06;59.08
79413;BME280;68863;49.528;11.010;2023-04-03T01:42:33;99113.66;;;3.01;58.82
79413;BME280;68863;49.528;11.010;2023-04-03T01:43:33;99111.91;;;3.01;58.79
79413;BME280;68863;49.528;11.010;2023-04-03T01:44:33;99114.63;;;2.97;59.29
79413;BME280;68863;49.528;11.010;2023-04-03T01:45:34;99110.28;;;2.97;59.04
79413;BME280;68863;49.528;11.010;2023-04-03T01:46:34;99106.91;;;2.93;58.89
79413;BME280;68863;49.528;11.010;2023-04-03T01:47:35;99112.22;;;2.89;59.27
79413;BME280;68863;49.528;11.010;2023-04-03T01:48:35;99112.50;;;2.78;59.36
79413;BME280;68863;49.528;11.010;2023-04-03T01:49:36;99109.06;;;2.78;59.52
79413;BME280;68863;49.528;11.010;2023-04-03T01:50:36;99112.69;;;2.70;59.88
79413;BME280;68863;49.528;11.010;2023-04-03T01:51:36;99114.38;;;2.73;59.92
79413;BME280;68863;49.528;11.010;2023-04-03T01:52:36;99110.88;;;2.74;59.67
79413;BME280;68863;49.528;11.010;2023-04-03T01:53:37;99104.75;;;2.77;59.97
79413;BME280;68863;49.528;11.010;2023-04-03T01:54:37;99109.78;;;2.83;60.08
79413;BME280;68863;49.528;11.010;2023-04-03T01:55:37;99109.19;;;2.72;60.52
79413;BME280;68863;49.528;11.010;2023-04-03T01:56:38;99103.03;;;2.77;60.38
79413;BME280;68863;49.528;11.010;2023-04-03T01:57:39;99103.16;;;2.71;60.36
79413;BME280;68863;49.528;11.010;2023-04-03T01:58:39;99113.41;;;2.77;60.10
79413;BME280;68863;49.528;11.010;2023-04-03T01:59:39;99102.25;;;2.74;60.45
79413;BME280;68863;49.528;11.010;2023-04-03T02:00:39;99105.63;;;2.76;60.52
79413;BME280;68863;49.528;11.010;2023-04-03T02:01:40;99103.13;;;2.73;60.35
79413;BME280;68863;49.528;11.010;2023-04-03T02:02:40;99098.00;;;2.71;60.62
79413;BME280;68863;49.528;11.010;2023-04-03T02:03:40;99110.09;;;2.70;60.67
79413;BME280;68863;49.528;11.010;2023-04-03T02:04:41;99100.53;;;2.73;60.91
79413;BME280;68863;49.528;11.010;2023-04-03T02:05:41;99108.31;;;2.73;60.54
79413;BME280;68863;49.528;11.010;2023-04-03T02:06:41;99105.75;;;2.71;60.29
79413;BME280;68863;49.528;11.010;2023-04-03T02:07:42;99107.63;;;2.66;60.64
79413;BME280;68863;49.528;11.010;2023-04-03T02:08:42;99107.75;;;2.61;60.97
79413;BME280;68863;49.528;11.010;2023-04-03T02:09:42;99107.88;;;2.55;61.31
79413;BME280;68863;49.528;11.010;2023-04-03T02:10:43;99109.59;;;2.56;60.81
79413;BME280;68863;49.528;11.010;2023-04-03T02:11:43;99111.28;;;2.57;60.77
79413;BME280;68863;49.528;11.010;2023-04-03T02:12:44;99109.00;;;2.45;61.84
79413;BME280;68863;49.528;11.010;2023-04-03T02:13:44;99109.81;;;2.47;61.54
79413;BME280;68863;49.528;11.010;2023-04-03T02:14:44;99115.00;;;2.47;61.64
79413;BME280;68863;49.528;11.010;2023-04-03T02:15:45;99106.63;;;2.36;62.33
79413;BME280;68863;49.528;11.010;2023-04-03T02:16:46;99110.78;;;2.43;62.13
79413;BME280;68863;49.528;11.010;2023-04-03T02:17:46;99112.66;;;2.36;62.29
79413;BME280;68863;49.528;11.010;2023-04-03T02:18:46;99114.47;;;2.33;62.40
79413;BME280;68863;49.528;11.010;2023-04-03T02:19:46;99117.91;;;2.35;62.60
79413;BME280;68863;49.528;11.010;2023-04-03T02:20:47;99115.25;;;2.36;62.78
79413;BME280;68863;49.528;11.010;2023-04-03T02:21:47;99114.47;;;2.33;62.61
79413;BME280;68863;49.528;11.010;2023-04-03T02:22:48;99110.91;;;2.37;62.70
79413;BME280;68863;49.528;11.010;2023-04-03T02:23:48;99112.59;;;2.39;62.79
79413;BME280;68863;49.528;11.010;2023-04-03T02:24:49;99118.63;;;2.40;62.72
79413;BME280;68863;49.528;11.010;2023-04-03T02:25:49;99115.13;;;2.41;63.00
79413;BME280;68863;49.528;11.010;2023-04-03T02:26:50;99111.88;;;2.33;63.17
79413;BME280;68863;49.528;11.010;2023-04-03T02:27:50;99107.66;;;2.30;63.18
79413;BME280;68863;49.528;11.010;2023-04-03T02:28:50;99111.81;;;2.36;63.29
79413;BME280;68863;49.528;11.010;2023-04-03T02:29:51;99103.16;;;2.37;63.35
79413;BME280;68863;49.528;11.010;2023-04-03T02:30:51;99107.44;;;2.38;63.15
79413;BME280;68863;49.528;11.010;2023-04-03T02:31:51;99105.00;;;2.32;63.41
79413;BME280;68863;49.528;11.010;2023-04-03T02:32:52;99105.13;;;2.27;63.47
79413;BME280;68863;49.528;11.010;2023-04-03T02:33:52;99108.41;;;2.34;63.29
79413;BME280;68863;49.528;11.010;2023-04-03T02:34:52;99108.50;;;2.31;63.82
79413;BME280;68863;49.528;11.010;2023-04-03T02:35:56;99105.91;;;2.29;63.61
79413;BME280;68863;49.528;11.010;2023-04-03T02:36:57;99107.72;;;2.26;63.96
79413;BME280;68863;49.528;11.010;2023-04-03T02:37:57;99104.22;;;2.28;64.20
79413;BME280;68863;49.528;11.010;2023-04-03T02:38:57;99106.94;;;2.24;64.19
79413;BME280;68863;49.528;11.010;2023-04-03T02:39:58;99103.31;;;2.31;63.86
79413;BME280;68863;49.528;11.010;2023-04-03T02:41:04;99112.13;;;2.24;64.09
79413;BME280;68863;49.528;11.010;2023-04-03T02:42:04;99113.69;;;2.31;64.11
79413;BME280;68863;49.528;11.010;2023-04-03T02:43:05;99111.41;;;2.17;64.50
79413;BME280;68863;49.528;11.010;2023-04-03T02:44:06;99119.81;;;2.27;64.32
79413;BME280;68863;49.528;11.010;2023-04-03T02:45:07;99112.03;;;2.27;64.33
79413;BME280;68863;49.528;11.010;2023-04-03T02:46:07;99112.25;;;2.17;64.46
79413;BME280;68863;49.528;11.010;2023-04-03T02:47:08;99111.38;;;2.18;65.10
79413;BME280;68863;49.528;11.010;2023-04-03T02:48:09;99113.13;;;2.16;64.17
79413;BME280;68863;49.528;11.010;2023-04-03T02:49:09;99107.91;;;2.19;64.72
79413;BME280;68863;49.528;11.010;2023-04-03T02:50:09;99115.78;;;2.13;64.97
79413;BME280;68863;49.528;11.010;2023-04-03T02:51:09;99115.78;;;2.13;64.77
79413;BME280;68863;49.528;11.010;2023-04-03T02:52:10;99110.50;;;2.18;64.55
79413;BME280;68863;49.528;11.010;2023-04-03T02:53:10;99110.38;;;2.24;64.45
79413;BME280;68863;49.528;11.010;2023-04-03T02:54:10;99112.00;;;2.28;64.20
79413;BME280;68863;49.528;11.010;2023-04-03T02:55:13;99113.19;;;2.13;64.84
79413;BME280;68863;49.528;11.010;2023-04-03T02:56:14;99111.41;;;2.17;65.03
79413;BME280;68863;49.528;11.010;2023-04-03T02:57:15;99113.03;;;2.21;65.24
79413;BME280;68863;49.528;11.010;2023-04-03T02:58:15;99115.66;;;2.19;65.11
79413;BME280;68863;49.528;11.010;2023-04-03T02:59:16;99116.34;;;2.26;65.18
79413;BME280;68863;49.528;11.010;2023-04-03T03:00:16;99115.56;;;2.24;65.25
79413;BME280;68863;49.528;11.010;2023-04-03T03:01:17;99111.25;;;2.23;65.11
79413;BME280;68863;49.528;11.010;2023-04-03T03:02:17;99113.91;;;2.20;65.71
79413;BME280;68863;49.528;11.010;2023-04-03T03:03:17;99113.06;;;2.19;66.15
79413;BME280;68863;49.528;11.010;2023-04-03T03:04:18;99111.22;;;2.25;65.31
79413;BME280;68863;49.528;11.010;2023-04-03T03:05:18;99114.66;;;2.25;65.22
79413;BME280;68863;49.528;11.010;2023-04-03T03:06:19;99110.31;;;2.27;65.26
79413;BME280;68863;49.528;11.010;2023-04-03T03:07:19;99116.16;;;2.34;65.25
79413;BME280;68863;49.528;11.010;2023-04-03T03:08:19;99105.91;;;2.31;65.15
79413;BME280;68863;49.528;11.010;2023-04-03T03:09:20;99111.00;;;2.34;65.30
79413;BME280;68863;49.528;11.010;2023-04-03T03:10:21;99110.06;;;2.36;65.25
79413;BME280;68863;49.528;11.010;2023-04-03T03:11:21;99111.00;;;2.34;65.35
79413;BME280;68863;49.528;11.010;2023-04-03T03:12:22;99117.00;;;2.36;65.71
79413;BME280;68863;49.528;11.010;2023-04-03T03:13:23;99106.69;;;2.33;65.86
79413;BME280;68863;49.528;11.010;2023-04-03T03:14:24;99111.69;;;2.40;65.78
79413;BME280;68863;49.528;11.010;2023-04-03T03:15:24;99099.53;;;2.44;65.36
79413;BME280;68863;49.528;11.010;2023-04-03T03:16:28;99108.31;;;2.37;65.39
79413;BME280;68863;49.528;11.010;2023-04-03T03:17:28;99106.50;;;2.42;65.67
79413;BME280;68863;49.528;11.010;2023-04-03T03:18:29;99106.50;;;2.42;65.83
79413;BME280;68863;49.528;11.010;2023-04-03T03:19:30;99098.63;;;2.45;65.79
79413;BME280;68863;49.528;11.010;2023-04-03T03:20:30;99108.03;;;2.49;65.48
79413;BME280;68863;49.528;11.010;2023-04-03T03:21:30;99106.56;;;2.39;65.59
79413;BME280;68863;49.528;11.010;2023-04-03T03:22:33;99105.91;;;2.31;66.08
79413;BME280;68863;49.528;11.010;2023-04-03T03:23:33;99105.75;;;2.37;66.00
79413;BME280;68863;49.528;11.010;2023-04-03T03:24:34;99103.97;;;2.39;66.22
79413;BME280;68863;49.528;11.010;2023-04-03T03:25:38;99104.22;;;2.28;65.99
79413;BME280;68863;49.528;11.010;2023-04-03T03:26:38;99106.59;;;2.37;66.13
79413;BME280;68863;49.528;11.010;2023-04-03T03:27:39;99109.16;;;2.39;65.92
79413;BME280;68863;49.528;11.010;2023-04-03T03:28:40;99111.69;;;2.40;66.31
79413;BME280;68863;49.528;11.010;2023-04-03T03:29:40;99110.91;;;2.37;65.97
79413;BME280;68863;49.528;11.010;2023-04-03T03:30:41;99118.63;;;2.40;65.92
79413;BME280;68863;49.528;11.010;2023-04-03T03:31:41;99119.41;;;2.43;65.66
79413;BME280;68863;49.528;11.010;2023-04-03T03:32:41;99112.59;;;2.39;66.42
79413;BME280;68863;49.528;11.010;2023-04-03T03:33:41;99104.84;;;2.38;65.88
79413;BME280;68863;49.528;11.010;2023-04-03T03:34:42;99107.47;;;2.36;66.10
79413;BME280;68863;49.528;11.010;2023-04-03T03:35:43;99106.53;;;2.40;66.07
79413;BME280;68863;49.528;11.010;2023-04-03T03:36:43;99112.63;;;2.38;66.47
79413;BME280;68863;49.528;11.010;2023-04-03T03:37:43;99108.31;;;2.37;66.66
79413;BME280;68863;49.528;11.010;2023-04-03T03:38:44;99111.78;;;2.37;66.52
79413;BME280;68863;49.528;11.010;2023-04-03T03:39:44;99111.69;;;2.42;66.44
79413;BME280;68863;49.528;11.010;2023-04-03T03:40:47;99101.50;;;2.34;66.62
79413;BME280;68863;49.528;11.010;2023-04-03T03:41:47;99112.47;;;2.44;66.71
79413;BME280;68863;49.528;11.010;2023-04-03T03:42:49;99107.16;;;2.50;66.42
79413;BME280;68863;49.528;11.010;2023-04-03T03:43:49;99108.81;;;2.53;66.51
79413;BME280;68863;49.528;11.010;2023-04-03T03:44:50;99104.56;;;2.50;66.58
79413;BME280;68863;49.528;11.010;2023-04-03T03:45:52;99107.88;;;2.55;66.64
79413;BME280;68863;49.528;11.010;2023-04-03T03:46:52;99107.88;;;2.55;66.24
79413;BME280;68863;49.528;11.010;2023-04-03T03:47:52;99112.09;;;2.59;66.22
79413;BME280;68863;49.528;11.010;2023-04-03T03:48:53;99102.91;;;2.48;66.64
79413;BME280;68863;49.528;11.010;2023-04-03T03:49:53;99111.31;;;2.56;66.43
79413;BME280;68863;49.528;11.010;2023-04-03T03:50:53;99108.81;;;2.53;66.83
79413;BME280;68863;49.528;11.010;2023-04-03T03:51:54;99102.66;;;2.57;66.54
79413;BME280;68863;49.528;11.010;2023-04-03T03:52:54;99107.13;;;2.52;66.89
79413;BME280;68863;49.528;11.010;2023-04-03T03:53:54;99112.94;;;2.61;66.63
79413;BME280;68863;49.528;11.010;2023-04-03T03:54:55;99112.06;;;2.61;66.73
79413;BME280;68863;49.528;11.010;2023-04-03T03:55:55;99113.59;;;2.68;66.43
79413;BME280;68863;49.528;11.010;2023-04-03T03:56:55;99111.88;;;2.68;66.45
79413;BME280;68863;49.528;11.010;2023-04-03T03:57:56;99105.72;;;2.73;66.73
79413;BME280;68863;49.528;11.010;2023-04-03T03:58:56;99115.47;;;2.63;67.01
79413;BME280;68863;49.528;11.010;2023-04-03T03:59:56;99109.28;;;2.68;66.89
79413;BME280;68863;49.528;11.010;2023-04-03T04:00:56;99108.78;;;2.54;67.15
79413;BME280;68863;49.528;11.010;2023-04-03T04:01:59;99106.41;;;2.45;67.37
79413;BME280;68863;49.528;11.010;2023-04-03T04:03:00;99105.53;;;2.46;67.72
79413;BME280;68863;49.528;11.010;2023-04-03T04:04:00;99101.88;;;2.53;67.31
79413;BME280;68863;49.528;11.010;2023-04-03T04:05:01;99112.38;;;2.49;67.57
79413;BME280;68863;49.528;11.010;2023-04-03T04:06:01;99113.19;;;2.51;67.87
79413;BME280;68863;49.528;11.010;2023-04-03T04:07:02;99114.88;;;2.52;68.05
79413;BME280;68863;49.528;11.010;2023-04-03T04:08:02;99114.94;;;2.50;67.88
79413;BME280;68863;49.528;11.010;2023-04-03T04:09:03;99113.22;;;2.49;67.85
79413;BME280;68863;49.528;11.010;2023-04-03T04:10:04;99116.66;;;2.50;67.84
79413;BME280;68863;49.528;11.010;2023-04-03T04:11:04;99118.31;;;2.54;67.54
79413;BME280;68863;49.528;11.010;2023-04-03T04:12:04;99114.84;;;2.53;67.51
79413;BME280;68863;49.528;11.010;2023-04-03T04:13:05;99119.22;;;2.51;67.43
79413;BME280;68863;49.528;11.010;2023-04-03T04:14:06;99113.31;;;2.46;67.40
79413;BME280;68863;49.528;11.010;2023-04-03T04:15:06;99118.25;;;2.55;67.25
79413;BME280;68863;49.528;11.010;2023-04-03T04:16:07;99123.38;;;2.57;67.63
79413;BME280;68863;49.528;11.010;2023-04-03T04:17:07;99115.84;;;2.48;67.81
79413;BME280;68863;49.528;11.010;2023-04-03T04:18:08;99110.78;;;2.43;67.81
79413;BME280;68863;49.528;11.010;2023-04-03T04:19:08;99111.81;;;2.36;68.03
79413;BME280;68863;49.528;11.010;2023-04-03T04:20:09;99120.31;;;2.41;68.11
79413;BME280;68863;49.528;11.010;2023-04-03T04:21:09;99119.41;;;2.43;67.90
79413;BME280;68863;49.528;11.010;2023-04-03T04:22:09;99120.38;;;2.38;68.03
79413;BME280;68863;49.528;11.010;2023-04-03T04:23:10;99118.56;;;2.43;68.09
79413;BME280;68863;49.528;11.010;2023-04-03T04:24:10;99111.75;;;2.39;68.09
79413;BME280;68863;49.528;11.010;2023-04-03T04:25:10;99115.31;;;2.33;68.50
79413;BME280;68863;49.528;11.010;2023-04-03T04:26:11;99112.63;;;2.38;68.70
79413;BME280;68863;49.528;11.010;2023-04-03T04:27:11;99112.78;;;2.32;68.24
79413;BME280;68863;49.528;11.010;2023-04-03T04:28:11;99110.25;;;2.30;68.58
79413;BME280;68863;49.528;11.010;2023-04-03T04:29:12;99113.69;;;2.31;68.76
79413;BME280;68863;49.528;11.010;2023-04-03T04:30:13;99119.72;;;2.31;68.74
79413;BME280;68863;49.528;11.010;2023-04-03T04:31:13;99118.00;;;2.30;68.37
79413;BME280;68863;49.528;11.010;2023-04-03T04:32:13;99114.53;;;2.30;68.50
79413;BME280;68863;49.528;11.010;2023-04-03T04:33:14;99115.50;;;2.26;68.53
79413;BME280;68863;49.528;11.010;2023-04-03T04:34:14;99109.28;;;2.33;68.49
79413;BME280;68863;49.528;11.010;2023-04-03T04:35:15;99117.22;;;2.27;68.78
79413;BME280;68863;49.528;11.010;2023-04-03T04:36:15;99113.06;;;2.19;68.86
79413;BME280;68863;49.528;11.010;2023-04-03T04:37:16;99118.84;;;2.31;68.57
79413;BME280;68863;49.528;11.010;2023-04-03T04:38:16;99111.09;;;2.31;68.91
79413;BME280;68863;49.528;11.010;2023-04-03T04:39:16;99114.47;;;2.34;68.54
79413;BME280;68863;49.528;11.010;2023-04-03T04:40:17;99111.34;;;2.20;69.10
79413;BME280;68863;49.528;11.010;2023-04-03T04:41:19;99110.53;;;2.16;69.12
79413;BME280;68863;49.528;11.010;2023-04-03T04:42:21;99117.47;;;2.16;69.24
79413;BME280;68863;49.528;11.010;2023-04-03T04:43:21;99114.78;;;2.20;69.10
79413;BME280;68863;49.528;11.010;2023-04-03T04:44:21;99122.66;;;2.14;69.21
79413;BME280;68863;49.528;11.010;2023-04-03T04:45:21;99115.00;;;2.11;69.14
79413;BME280;68863;49.528;11.010;2023-04-03T04:46:22;99120.25;;;2.07;69.53
79413;BME280;68863;49.528;11.010;2023-04-03T04:47:22;99120.34;;;2.02;69.54
79413;BME280;68863;49.528;11.010;2023-04-03T04:48:22;99113.44;;;2.03;69.56
79413;BME280;68863;49.528;11.010;2023-04-03T04:49:23;99116.72;;;2.11;69.13
79413;BME280;68863;49.528;11.010;2023-04-03T04:50:23;99116.72;;;2.11;69.22
79413;BME280;68863;49.528;11.010;2023-04-03T04:51:24;99115.06;;;2.08;69.07
79413;BME280;68863;49.528;11.010;2023-04-03T04:52:25;99115.00;;;2.11;69.09
79413;BME280;68863;49.528;11.010;2023-04-03T04:53:25;99117.66;;;2.07;69.30
79413;BME280;68863;49.528;11.010;2023-04-03T04:54:25;99114.44;;;1.97;69.35
79413;BME280;68863;49.528;11.010;2023-04-03T04:55:25;99127.34;;;1.99;69.62
79413;BME280;68863;49.528;11.010;2023-04-03T04:56:26;99124.78;;;1.97;69.52
79413;BME280;68863;49.528;11.010;2023-04-03T04:57:26;99121.19;;;2.04;69.54
79413;BME280;68863;49.528;11.010;2023-04-03T04:58:27;99121.63;;;1.84;70.03
79413;BME280;68863;49.528;11.010;2023-04-03T04:59:27;99117.38;;;1.82;70.02
79413;BME280;68863;49.528;11.010;2023-04-03T05:00:27;99126.97;;;1.77;70.47
79413;BME280;68863;49.528;11.010;2023-04-03T05:01:27;99121.66;;;1.83;69.86
79413;BME280;68863;49.528;11.010;2023-04-03T05:02:28;99126.81;;;1.84;69.98
79413;BME280;68863;49.528;11.010;2023-04-03T05:03:29;99124.22;;;1.84;70.11
79413;BME280;68863;49.528;11.010;2023-04-03T05:04:29;99127.78;;;1.79;70.13
79413;BME280;68863;49.528;11.010;2023-04-03T05:05:29;99129.28;;;1.89;69.87
79413;BME280;68863;49.528;11.010;2023-04-03T05:06:30;99137.78;;;1.95;69.74
79413;BME280;68863;49.528;11.010;2023-04-03T05:07:31;99133.47;;;1.96;69.74
79413;BME280;68863;49.528;11.010;2023-04-03T05:08:32;99136.16;;;1.90;69.65
79413;BME280;68863;49.528;11.010;2023-04-03T05:09:32;99138.63;;;1.96;69.83
79413;BME280;68863;49.528;11.010;2023-04-03T05:10:32;99139.78;;;1.83;69.66
79413;BME280;68863;49.528;11.010;2023-04-03T05:11:33;99136.97;;;1.93;69.67
79413;BME280;68863;49.528;11.010;2023-04-03T05:12:33;99143.75;;;1.99;69.23
79413;BME280;68863;49.528;11.010;2023-04-03T05:13:33;99132.63;;;1.95;69.37
79413;BME280;68863;49.528;11.010;2023-04-03T05:14:33;99140.41;;;1.94;69.56
79413;BME280;68863;49.528;11.010;2023-04-03T05:15:34;99137.06;;;1.89;69.42
79413;BME280;68863;49.528;11.010;2023-04-03T05:16:34;99136.91;;;1.95;69.26
79413;BME280;68863;49.528;11.010;2023-04-03T05:17:34;99135.91;;;2.02;69.21
79413;BME280;68863;49.528;11.010;2023-04-03T05:22:29;99136.72;;;2.04;68.25
79413;BME280;68863;49.528;11.010;2023-04-03T05:23:29;99140.28;;;1.99;68.43
79413;BME280;68863;49.528;11.010;2023-04-03T05:24:29;99143.59;;;2.05;68.40
79413;BME280;68863;49.528;11.010;2023-04-03T05:25:30;99143.50;;;2.10;68.23
79413;BME280;68863;49.528;11.010;2023-04-03T05:26:30;99145.50;;;1.97;68.29
79413;BME280;68863;49.528;11.010;2023-04-03T05:27:31;99142.88;;;2.00;68.49
79413;BME280;68863;49.528;11.010;2023-04-03T05:28:31;99140.22;;;2.02;68.16
79413;BME280;68863;49.528;11.010;2023-04-03T05:29:32;99136.72;;;2.04;68.00
79413;BME280;68863;49.528;11.010;2023-04-03T05:30:32;99145.34;;;2.05;68.07
79413;BME280;68863;49.528;11.010;2023-04-03T05:31:33;99142.81;;;2.03;68.16